地図

経路データ

SID SEASON NUMBER BASIN SUBBASIN NAME ISO_TIME NATURE LAT LON WMO_WIND WMO_PRES WMO_AGENCY TRACK_TYPE DIST2LAND LANDFALL IFLAG USA_AGENCY USA_ATCF_ID USA_LAT USA_LON USA_RECORD USA_STATUS USA_WIND USA_PRES USA_SSHS USA_R34_NE USA_R34_SE USA_R34_SW USA_R34_NW USA_R50_NE USA_R50_SE USA_R50_SW USA_R50_NW USA_R64_NE USA_R64_SE USA_R64_SW USA_R64_NW USA_POCI USA_ROCI USA_RMW USA_EYE TOKYO_LAT TOKYO_LON TOKYO_GRADE TOKYO_WIND TOKYO_PRES TOKYO_R50_DIR TOKYO_R50_LONG TOKYO_R50_SHORT TOKYO_R30_DIR TOKYO_R30_LONG TOKYO_R30_SHORT TOKYO_LAND CMA_LAT CMA_LON CMA_CAT CMA_WIND CMA_PRES HKO_LAT HKO_LON HKO_CAT HKO_WIND HKO_PRES NEWDELHI_LAT NEWDELHI_LON NEWDELHI_GRADE NEWDELHI_WIND NEWDELHI_PRES NEWDELHI_CI NEWDELHI_DP NEWDELHI_POCI REUNION_LAT REUNION_LON REUNION_TYPE REUNION_WIND REUNION_PRES REUNION_TNUM REUNION_CI REUNION_RMW REUNION_R34_NE REUNION_R34_SE REUNION_R34_SW REUNION_R34_NW REUNION_R50_NE REUNION_R50_SE REUNION_R50_SW REUNION_R50_NW REUNION_R64_NE REUNION_R64_SE REUNION_R64_SW REUNION_R64_NW BOM_LAT BOM_LON BOM_TYPE BOM_WIND BOM_PRES BOM_TNUM BOM_CI BOM_RMW BOM_R34_NE BOM_R34_SE BOM_R34_SW BOM_R34_NW BOM_R50_NE BOM_R50_SE BOM_R50_SW BOM_R50_NW BOM_R64_NE BOM_R64_SE BOM_R64_SW BOM_R64_NW BOM_ROCI BOM_POCI BOM_EYE BOM_POS_METHOD BOM_PRES_METHOD NADI_LAT NADI_LON NADI_CAT NADI_WIND NADI_PRES WELLINGTON_LAT WELLINGTON_LON WELLINGTON_WIND WELLINGTON_PRES DS824_LAT DS824_LON DS824_STAGE DS824_WIND DS824_PRES TD9636_LAT TD9636_LON TD9636_STAGE TD9636_WIND TD9636_PRES TD9635_LAT TD9635_LON TD9635_WIND TD9635_PRES TD9635_ROCI NEUMANN_LAT NEUMANN_LON NEUMANN_CLASS NEUMANN_WIND NEUMANN_PRES MLC_LAT MLC_LON MLC_CLASS MLC_WIND MLC_PRES USA_GUST BOM_GUST BOM_GUST_PER REUNION_GUST REUNION_GUST_PER USA_SEAHGT USA_SEARAD_NE USA_SEARAD_SE USA_SEARAD_SW USA_SEARAD_NW STORM_SPEED STORM_DIR
1975298N29281 1975 118 NA NA HALLIE 1975-10-24 18:00:00 SS 29.1000 -79.3000 30 1006 hurdat_atl main 134 134 O_____________ hurdat_atl AL191975 29.1000 -79.3000 SD 30 1006 -2 6 141
1975298N29281 1975 118 NA NA HALLIE 1975-10-24 21:00:00 SS 28.8601 -79.0773 main 143 140 P_____________ AL191975 28.8601 -79.0773 SD 30 1006 -2 4 139
1975298N29281 1975 118 NA NA HALLIE 1975-10-25 00:00:00 SS 28.8000 -79.0000 30 1006 hurdat_atl main 149 143 O_____________ hurdat_atl AL191975 28.8000 -79.0000 SD 30 1006 -2 2 338
1975298N29281 1975 118 NA NA HALLIE 1975-10-25 03:00:00 SS 29.0326 -79.1547 main 138 138 P_____________ AL191975 29.0326 -79.1547 SD 30 1006 -2 7 330
1975298N29281 1975 118 NA NA HALLIE 1975-10-25 06:00:00 SS 29.4000 -79.4000 30 1006 hurdat_atl main 146 142 O_____________ hurdat_atl AL191975 29.4000 -79.4000 SD 30 1006 -2 8 332
1975298N29281 1975 118 NA NA HALLIE 1975-10-25 09:00:00 SS 29.7300 -79.5724 main 142 142 P_____________ AL191975 29.7300 -79.5724 SD 30 1006 -2 7 337
1975298N29281 1975 118 NA NA HALLIE 1975-10-25 12:00:00 SS 30.0000 -79.7000 30 1006 hurdat_atl main 150 145 O_____________ hurdat_atl AL191975 30.0000 -79.7000 SD 30 1006 -2 4 337
1975298N29281 1975 118 NA NA HALLIE 1975-10-25 15:00:00 SS 30.1225 -79.7652 main 145 145 P_____________ AL191975 30.1225 -79.7652 SD 30 1006 -2 2 335
1975298N29281 1975 118 NA NA HALLIE 1975-10-25 18:00:00 SS 30.2000 -79.8000 30 1006 hurdat_atl main 150 150 O_____________ hurdat_atl AL191975 30.2000 -79.8000 SD 30 1006 -2 2 342
1975298N29281 1975 118 NA NA HALLIE 1975-10-25 21:00:00 SS 30.3350 -79.8426 main 154 145 P_____________ AL191975 30.3350 -79.8426 SD 30 1006 -2 3 344
1975298N29281 1975 118 NA NA HALLIE 1975-10-26 00:00:00 SS 30.5000 -79.9000 30 1006 hurdat_atl main 145 134 O_____________ hurdat_atl AL191975 30.5000 -79.9000 SD 30 1006 -2 4 332
1975298N29281 1975 118 NA NA HALLIE 1975-10-26 03:00:00 SS 30.6550 -80.0445 main 133 122 P_____________ AL191975 30.6550 -80.0445 SD 30 1006 -2 4 337
1975298N29281 1975 118 NA NA HALLIE 1975-10-26 06:00:00 TS 30.9000 -80.1000 30 1006 hurdat_atl main 122 108 O_____________ hurdat_atl AL191975 30.9000 -80.1000 TD 30 1006 -1 7 8
1975298N29281 1975 118 NA NA HALLIE 1975-10-26 09:00:00 TS 31.3274 -79.9327 main 115 96 P_____________ AL191975 31.3274 -79.9327 TD 30 1005 -1 10 25
1975298N29281 1975 118 NA NA HALLIE 1975-10-26 12:00:00 TS 31.8000 -79.6000 30 1005 hurdat_atl main 96 86 O_____________ hurdat_atl AL191975 31.8000 -79.6000 TD 30 1005 -1 10 37
1975298N29281 1975 118 NA NA HALLIE 1975-10-26 15:00:00 TS 32.1423 -79.2016 main 93 79 P_____________ AL191975 32.1423 -79.2016 TD 32 1004 -1 10 47
1975298N29281 1975 118 NA NA HALLIE 1975-10-26 18:00:00 TS 32.5000 -78.7000 35 1003 hurdat_atl main 85 85 O_____________ hurdat_atl AL191975 32.5000 -78.7000 TS 35 1003 0 12 46
1975298N29281 1975 118 NA NA HALLIE 1975-10-26 21:00:00 TS 32.9765 -78.1814 main 95 62 P_____________ AL191975 32.9765 -78.1814 TS 40 1002 0 14 45
1975298N29281 1975 118 NA NA HALLIE 1975-10-27 00:00:00 TS 33.5000 -77.5000 45 1002 hurdat_atl main 64 64 O_____________ hurdat_atl AL191975 33.5000 -77.5000 TS 45 1002 0 17 54
1975298N29281 1975 118 NA NA HALLIE 1975-10-27 03:00:00 TS 33.9860 -76.5372 main 78 63 P_____________ AL191975 33.9860 -76.5372 TS 45 1002 0 19 59
1975298N29281 1975 118 NA NA HALLIE 1975-10-27 06:00:00 TS 34.5000 -75.5000 45 1002 hurdat_atl main 85 85 O_____________ hurdat_atl AL191975 34.5000 -75.5000 TS 45 1002 0 20 55
1975298N29281 1975 118 NA NA HALLIE 1975-10-27 09:00:00 TS 35.1221 -74.5906 main 112 112 P_____________ AL191975 35.1221 -74.5906 TS 45 1003 0 18 49
1975298N29281 1975 118 NA NA HALLIE 1975-10-27 12:00:00 TS 35.7000 -73.8000 45 1004 hurdat_atl main 153 153 O_____________ hurdat_atl AL191975 35.7000 -73.8000 TS 45 1004 0 15 50
1975298N29281 1975 118 NA NA HALLIE 1975-10-27 15:00:00 TS 36.1015 -73.1608 main 209 209 P_____________ AL191975 36.1015 -73.1608 TS 42 1005 0 12 54
1975298N29281 1975 118 NA NA HALLIE 1975-10-27 18:00:00 ET 36.4000 -72.6000 40 1006 hurdat_atl main 268 268 O_____________ hurdat_atl AL191975 36.4000 -72.6000 EX 40 1006 -4 11 59
1975298N29281 1975 118 NA NA HALLIE 1975-10-27 21:00:00 ET 36.6585 -72.0138 main 325 325 P_____________ AL191975 36.6585 -72.0138 EX 37 1007 -4 11 63
1975298N29281 1975 118 NA NA HALLIE 1975-10-28 00:00:00 ET 36.9000 -71.4000 35 1008 hurdat_atl main 360 O_____________ hurdat_atl AL191975 36.9000 -71.4000 EX 35 1008 -4 11 64

IBTrACS Databaseについて

本データベースは、米国NOAAが公開する1842年以降の世界の熱帯低気圧のベストトラックデータアーカイブInternational Best Track Archive for Climate Stewardship (IBTrACS)を、ウェブで閲覧しやすい形式に変換したものです。

最終更新日:2021-11-26